createdAt,value
2023-04-15T00:00:57.711Z,9.04
2023-04-15T00:03:25.120Z,10.17
2023-04-15T00:05:52.385Z,10.38
2023-04-15T00:08:19.748Z,10.28
2023-04-15T00:10:46.852Z,10.10
2023-04-15T00:13:13.822Z,9.33
2023-04-15T00:15:41.140Z,9.91
2023-04-15T00:18:08.404Z,9.27
2023-04-15T00:20:35.815Z,9.15
2023-04-15T00:23:04.315Z,9.78
2023-04-15T00:25:31.787Z,9.25
2023-04-15T00:27:58.991Z,9.81
2023-04-15T00:30:26.773Z,9.91
2023-04-15T00:32:53.851Z,10.02
2023-04-15T00:35:20.996Z,10.18
2023-04-15T00:37:47.879Z,9.67
2023-04-15T00:40:17.993Z,9.83
2023-04-15T00:42:45.748Z,9.24
2023-04-15T00:45:13.161Z,9.83
2023-04-15T00:47:42.418Z,8.84
2023-04-15T00:50:10.101Z,9.21
2023-04-15T00:52:37.428Z,8.73
2023-04-15T00:55:04.917Z,9.15
2023-04-15T00:57:32.105Z,8.75
2023-04-15T00:59:59.286Z,9.20
2023-04-15T01:02:26.354Z,9.36
2023-04-15T01:04:53.359Z,9.81
2023-04-15T01:07:20.232Z,9.65
2023-04-15T01:09:48.192Z,9.39
2023-04-15T01:12:16.547Z,9.30
2023-04-15T01:14:43.557Z,9.41
2023-04-15T01:17:10.466Z,9.33
2023-04-15T01:19:37.594Z,9.62
2023-04-15T01:22:05.577Z,9.85
2023-04-15T01:24:34.195Z,9.78
2023-04-15T01:27:01.127Z,9.65
2023-04-15T01:29:28.102Z,9.37
2023-04-15T01:31:56.415Z,9.57
2023-04-15T01:34:23.387Z,10.27
2023-04-15T01:36:50.311Z,9.61
2023-04-15T01:39:17.226Z,9.08
2023-04-15T01:41:44.278Z,9.80
2023-04-15T01:44:11.281Z,9.51
2023-04-15T01:46:38.313Z,9.80
2023-04-15T01:49:05.272Z,8.96
2023-04-15T01:51:32.319Z,9.01
2023-04-15T01:53:59.226Z,9.31
2023-04-15T01:56:26.737Z,8.89
2023-04-15T01:58:53.827Z,9.32
2023-04-15T02:01:20.974Z,9.10
2023-04-15T02:03:48.371Z,9.76
2023-04-15T02:06:15.533Z,9.07
2023-04-15T02:08:42.526Z,9.94
2023-04-15T02:11:09.482Z,9.26
2023-04-15T02:13:36.533Z,9.49
2023-04-15T02:16:04.121Z,9.21
2023-04-15T02:18:31.225Z,9.28
2023-04-15T02:20:58.987Z,8.73
2023-04-15T02:23:26.039Z,8.68
2023-04-15T02:25:53.999Z,8.82
2023-04-15T02:28:22.042Z,9.21
2023-04-15T02:30:52.882Z,9.66
2023-04-15T02:33:21.475Z,9.31
2023-04-15T02:35:48.373Z,9.64
2023-04-15T02:38:17.019Z,9.64
2023-04-15T02:40:43.945Z,9.62
2023-04-15T02:43:10.823Z,9.71
2023-04-15T02:45:37.732Z,9.38
2023-04-15T02:48:06.692Z,9.65
2023-04-15T02:50:33.764Z,9.75
2023-04-15T02:53:01.774Z,9.94
2023-04-15T02:55:29.423Z,9.22
2023-04-15T02:57:58.602Z,9.59
2023-04-15T03:00:25.600Z,10.32
2023-04-15T03:02:56.787Z,10.45
2023-04-15T03:05:25.564Z,10.06
2023-04-15T03:07:53.032Z,10.13
2023-04-15T03:10:20.344Z,9.64
2023-04-15T03:12:47.261Z,9.52
2023-04-15T03:15:14.222Z,10.01
2023-04-15T03:17:41.216Z,9.89
2023-04-15T03:20:09.011Z,9.63
2023-04-15T03:22:35.937Z,9.57
2023-04-15T03:25:02.871Z,10.63
2023-04-15T03:27:29.725Z,9.67
2023-04-15T03:29:57.015Z,9.83
2023-04-15T03:32:24.021Z,9.97
2023-04-15T03:34:50.904Z,10.31
2023-04-15T03:37:17.775Z,9.90
2023-04-15T03:39:44.648Z,10.80
2023-04-15T03:42:11.469Z,9.29
2023-04-15T03:44:38.533Z,9.49
2023-04-15T03:47:05.390Z,10.37
2023-04-15T03:49:32.294Z,10.19
2023-04-15T03:51:59.876Z,10.57
2023-04-15T03:54:26.750Z,10.07
2023-04-15T03:56:53.665Z,10.50
2023-04-15T03:59:20.599Z,9.34
2023-04-15T04:01:47.618Z,10.01
2023-04-15T04:04:14.688Z,9.75
2023-04-15T04:06:41.643Z,9.07
2023-04-15T04:09:08.488Z,10.22
2023-04-15T04:11:35.271Z,10.08
2023-04-15T04:14:02.185Z,9.43
2023-04-15T04:16:29.237Z,9.29
2023-04-15T04:18:56.130Z,9.22
2023-04-15T04:21:23.162Z,9.47
2023-04-15T04:23:50.064Z,9.83
2023-04-15T04:26:16.944Z,9.23
2023-04-15T04:28:43.795Z,9.36
2023-04-15T04:31:11.067Z,9.02
2023-04-15T04:33:38.031Z,9.79
2023-04-15T04:36:05.338Z,9.23
2023-04-15T04:38:32.190Z,9.16
2023-04-15T04:40:58.873Z,9.03
2023-04-15T04:43:25.707Z,9.37
2023-04-15T04:45:52.416Z,9.16
2023-04-15T04:48:20.046Z,8.85
2023-04-15T04:50:47.268Z,9.45
2023-04-15T04:53:14.230Z,9.59
2023-04-15T04:55:41.479Z,8.87
2023-04-15T04:58:08.349Z,9.88
2023-04-15T05:00:35.230Z,9.75
2023-04-15T05:03:02.232Z,9.87
2023-04-15T05:05:29.238Z,9.59
2023-04-15T05:07:56.510Z,9.43
2023-04-15T05:10:23.418Z,9.96
2023-04-15T05:12:50.701Z,9.80
2023-04-15T05:15:17.576Z,10.64
2023-04-15T05:17:44.935Z,9.95
2023-04-15T05:20:12.615Z,10.64
2023-04-15T05:22:39.482Z,10.96
2023-04-15T05:25:06.626Z,10.71
2023-04-15T05:27:33.527Z,10.32
2023-04-15T05:30:00.672Z,10.00
2023-04-15T05:32:27.664Z,9.91
2023-04-15T05:34:54.540Z,10.25
2023-04-15T05:37:22.453Z,10.12
2023-04-15T05:39:49.298Z,9.48
2023-04-15T05:42:16.912Z,9.96
2023-04-15T05:44:43.988Z,9.48
2023-04-15T05:47:11.150Z,10.24
2023-04-15T05:49:38.034Z,10.02
2023-04-15T05:52:05.016Z,9.74
2023-04-15T05:54:31.948Z,10.68
2023-04-15T05:56:59.179Z,10.49
2023-04-15T05:59:26.197Z,11.21
2023-04-15T06:01:53.238Z,9.78
2023-04-15T06:04:20.271Z,10.22
2023-04-15T06:06:47.349Z,10.71
2023-04-15T06:09:14.229Z,11.07
2023-04-15T06:11:41.608Z,10.87
2023-04-15T06:14:08.584Z,11.16
2023-04-15T06:16:36.878Z,11.04
2023-04-15T06:19:04.151Z,10.05
2023-04-15T06:21:31.837Z,10.61
2023-04-15T06:24:01.660Z,10.60
2023-04-15T06:26:28.857Z,10.00
2023-04-15T06:28:55.951Z,10.02
2023-04-15T06:31:23.219Z,9.97
2023-04-15T06:33:50.205Z,9.71
2023-04-15T06:36:17.142Z,9.51
2023-04-15T06:38:44.148Z,10.36
2023-04-15T06:41:11.308Z,9.62
2023-04-15T06:43:38.179Z,9.28
2023-04-15T06:46:05.273Z,9.93
2023-04-15T06:48:32.392Z,9.98
2023-04-15T06:50:59.292Z,10.21
2023-04-15T06:53:28.169Z,10.09
2023-04-15T06:55:55.073Z,10.07
2023-04-15T06:58:22.314Z,10.39
2023-04-15T07:00:49.399Z,10.47
2023-04-15T07:03:16.339Z,10.74
2023-04-15T07:05:43.608Z,10.20
2023-04-15T07:08:10.614Z,10.87
2023-04-15T07:10:38.289Z,11.12
2023-04-15T07:13:05.941Z,10.70
2023-04-15T07:15:32.812Z,11.10
2023-04-15T07:17:59.714Z,11.24
2023-04-15T07:20:26.794Z,11.27
2023-04-15T07:22:54.037Z,11.66
2023-04-15T07:25:21.213Z,12.19
2023-04-15T07:27:48.123Z,11.43
2023-04-15T07:30:15.363Z,11.11
2023-04-15T07:32:42.662Z,10.67
2023-04-15T07:35:10.049Z,11.20
2023-04-15T07:37:37.411Z,11.81
2023-04-15T07:40:05.381Z,11.62
2023-04-15T07:42:32.300Z,11.73
2023-04-15T07:44:59.170Z,11.15
2023-04-15T07:47:26.509Z,11.11
2023-04-15T07:49:53.534Z,11.11
2023-04-15T07:52:20.391Z,11.48
2023-04-15T07:54:47.310Z,11.90
2023-04-15T07:57:14.231Z,12.52
2023-04-15T07:59:41.940Z,12.43
2023-04-15T08:02:09.087Z,12.28
2023-04-15T08:04:36.213Z,12.18
2023-04-15T08:07:04.411Z,12.38
2023-04-15T08:09:31.424Z,11.75
2023-04-15T08:11:58.288Z,12.03
2023-04-15T08:14:25.200Z,12.12
2023-04-15T08:16:52.058Z,11.85
2023-04-15T08:19:18.975Z,12.14
2023-04-15T08:21:45.854Z,11.73
2023-04-15T08:24:13.138Z,11.87
2023-04-15T08:26:40.044Z,12.10
2023-04-15T08:29:06.917Z,11.35
2023-04-15T08:31:34.210Z,11.08
2023-04-15T08:34:01.357Z,10.84
2023-04-15T08:36:28.681Z,11.16
2023-04-15T08:38:55.668Z,11.00
2023-04-15T08:41:24.611Z,11.03
2023-04-15T08:43:58.104Z,11.54
2023-04-15T08:46:25.717Z,11.50
2023-04-15T08:48:52.794Z,11.17
2023-04-15T08:51:20.140Z,11.07
2023-04-15T08:53:47.622Z,10.80
2023-04-15T08:56:16.968Z,10.83
2023-04-15T08:58:47.286Z,11.60
2023-04-15T09:01:14.185Z,11.63
2023-04-15T09:03:42.226Z,11.44
2023-04-15T09:06:09.206Z,11.79
2023-04-15T09:08:36.103Z,12.40
2023-04-15T09:11:06.116Z,12.77
2023-04-15T09:13:33.061Z,12.42
2023-04-15T09:16:03.922Z,12.97
2023-04-15T09:18:32.906Z,12.55
2023-04-15T09:21:16.426Z,12.23
2023-04-15T09:24:00.217Z,12.30
2023-04-15T09:26:45.573Z,12.20
2023-04-15T09:29:14.039Z,12.24
2023-04-15T09:31:41.789Z,12.58
2023-04-15T09:34:09.021Z,12.01
2023-04-15T09:36:57.038Z,12.58
2023-04-15T09:39:24.041Z,12.58
2023-04-15T09:42:07.375Z,12.18
2023-04-15T09:44:34.447Z,11.81
2023-04-15T09:47:01.909Z,12.30
2023-04-15T09:49:29.067Z,12.07
2023-04-15T09:52:05.497Z,11.95
2023-04-15T09:54:33.842Z,12.30
2023-04-15T09:57:10.471Z,12.34
2023-04-15T09:59:37.555Z,12.10
2023-04-15T10:02:10.515Z,11.84
2023-04-15T10:04:41.062Z,11.88
2023-04-15T10:07:10.013Z,11.86
2023-04-15T10:09:37.071Z,11.89
2023-04-15T10:12:05.480Z,11.91
2023-04-15T10:14:34.790Z,11.97
2023-04-15T10:17:02.867Z,12.37
2023-04-15T10:19:32.469Z,12.13
2023-04-15T10:21:59.679Z,12.07
2023-04-15T10:24:27.178Z,12.62
2023-04-15T10:26:54.461Z,12.54
2023-04-15T10:29:21.397Z,12.60
2023-04-15T10:31:48.691Z,12.37
2023-04-15T10:34:16.230Z,12.55
2023-04-15T10:36:43.165Z,12.29
2023-04-15T10:39:35.062Z,12.55
2023-04-15T10:42:33.963Z,12.95
2023-04-15T10:45:00.842Z,13.72
2023-04-15T10:47:28.750Z,13.55
2023-04-15T10:50:00.510Z,13.34
2023-04-15T10:52:28.798Z,13.32
2023-04-15T10:55:10.903Z,13.95
2023-04-15T10:57:42.132Z,13.79
2023-04-15T11:00:12.306Z,13.73
2023-04-15T11:02:43.362Z,13.62
2023-04-15T11:05:17.677Z,13.63
2023-04-15T11:07:51.753Z,13.66
2023-04-15T11:10:18.742Z,13.66
2023-04-15T11:12:46.206Z,14.66
2023-04-15T11:15:30.516Z,13.95
2023-04-15T11:17:58.311Z,14.63
2023-04-15T11:20:25.580Z,15.10
2023-04-15T11:23:08.260Z,15.03
2023-04-15T11:25:41.956Z,14.93
2023-04-15T11:28:08.978Z,14.99
2023-04-15T11:30:37.748Z,14.80
2023-04-15T11:33:09.841Z,15.24
2023-04-15T11:35:37.051Z,15.02
2023-04-15T11:38:14.438Z,14.35
2023-04-15T11:40:43.817Z,13.69
2023-04-15T11:43:12.971Z,14.04
2023-04-15T11:45:59.666Z,13.61
2023-04-15T11:48:35.123Z,13.66
2023-04-15T11:51:07.108Z,12.69
2023-04-15T11:53:41.140Z,13.12
2023-04-15T11:56:10.137Z,13.26
2023-04-15T11:58:38.371Z,13.15
2023-04-15T12:01:06.730Z,13.28
2023-04-15T12:03:44.635Z,13.17
2023-04-15T12:06:17.824Z,13.12
2023-04-15T12:09:23.469Z,13.68
2023-04-15T12:11:53.026Z,13.77
2023-04-15T12:14:29.634Z,13.96
2023-04-15T12:17:05.023Z,14.29
2023-04-15T12:19:36.022Z,14.49
2023-04-15T12:22:05.471Z,13.98
2023-04-15T12:24:36.585Z,13.62
2023-04-15T12:27:07.955Z,13.64
2023-04-15T12:29:36.860Z,13.62
2023-04-15T12:32:14.436Z,12.95
2023-04-15T12:34:45.109Z,12.82
2023-04-15T12:37:16.165Z,12.74
2023-04-15T12:39:45.171Z,12.72
2023-04-15T12:42:12.496Z,12.98
2023-04-15T12:44:39.786Z,12.88
2023-04-15T12:47:08.094Z,13.11
2023-04-15T12:49:35.025Z,13.41
2023-04-15T12:52:02.654Z,13.19
2023-04-15T12:54:30.408Z,13.64
2023-04-15T12:56:57.828Z,14.03
2023-04-15T12:59:25.157Z,13.89
2023-04-15T13:01:53.639Z,13.96
2023-04-15T13:04:21.552Z,14.02
2023-04-15T13:06:48.594Z,14.17
2023-04-15T13:09:15.920Z,13.64
2023-04-15T13:11:42.874Z,13.46
2023-04-15T13:14:11.776Z,13.54
2023-04-15T13:16:39.094Z,13.20
2023-04-15T13:19:05.991Z,13.78
2023-04-15T13:21:36.010Z,13.82
2023-04-15T13:24:04.517Z,14.15
2023-04-15T13:26:32.174Z,14.91
2023-04-15T13:28:59.523Z,15.11
2023-04-15T13:31:26.518Z,15.14
2023-04-15T13:33:53.548Z,15.60
2023-04-15T13:36:20.443Z,16.01
2023-04-15T13:38:49.711Z,16.46
2023-04-15T13:41:17.973Z,16.48
2023-04-15T13:43:44.818Z,16.93
2023-04-15T13:46:11.764Z,16.92
2023-04-15T13:48:38.716Z,17.49
2023-04-15T13:51:05.714Z,17.40
2023-04-15T13:53:33.828Z,17.17
2023-04-15T13:56:06.949Z,16.98
2023-04-15T13:58:33.900Z,17.03
2023-04-15T14:01:02.568Z,16.74
2023-04-15T14:03:31.158Z,16.56
2023-04-15T14:05:58.645Z,16.75
2023-04-15T14:08:26.039Z,17.04
2023-04-15T14:10:52.972Z,16.94
2023-04-15T14:13:19.846Z,17.21
2023-04-15T14:15:47.362Z,17.34
2023-04-15T14:18:14.286Z,17.24
2023-04-15T14:20:41.254Z,17.33
2023-04-15T14:23:08.199Z,17.55
2023-04-15T14:25:35.110Z,17.77
2023-04-15T14:28:03.661Z,17.85
2023-04-15T14:30:31.007Z,18.32
2023-04-15T14:32:57.996Z,18.53
2023-04-15T14:35:26.848Z,18.72
2023-04-15T14:37:54.588Z,18.16
2023-04-15T14:40:21.867Z,18.59
2023-04-15T14:42:48.811Z,18.76
2023-04-15T14:45:15.705Z,19.22
2023-04-15T14:47:42.689Z,19.01
2023-04-15T14:50:10.153Z,18.95
2023-04-15T14:52:39.768Z,17.71
2023-04-15T14:55:08.072Z,17.58
2023-04-15T14:57:35.022Z,17.84
2023-04-15T15:00:02.162Z,17.20
2023-04-15T15:02:38.412Z,18.34
2023-04-15T15:05:07.705Z,19.17
2023-04-15T15:07:36.213Z,18.20
2023-04-15T15:10:03.254Z,18.74
2023-04-15T15:12:30.264Z,16.82
2023-04-15T15:14:57.139Z,16.85
2023-04-15T15:17:24.099Z,15.88
2023-04-15T15:19:51.167Z,16.87
2023-04-15T15:22:20.130Z,16.24
2023-04-15T15:24:48.088Z,14.90
2023-04-15T15:27:14.996Z,14.87
2023-04-15T15:29:41.900Z,15.17
2023-04-15T15:32:08.727Z,14.59
2023-04-15T15:34:35.805Z,14.70
2023-04-15T15:37:02.708Z,13.90
2023-04-15T15:39:29.622Z,13.79
2023-04-15T15:41:56.520Z,14.13
2023-04-15T15:44:23.420Z,14.57
2023-04-15T15:46:50.923Z,15.28
2023-04-15T15:49:17.884Z,14.92
2023-04-15T15:51:46.018Z,14.60
2023-04-15T15:54:13.229Z,14.41
2023-04-15T15:56:40.227Z,15.12
2023-04-15T15:59:07.295Z,13.13
2023-04-15T16:01:34.268Z,14.66
2023-04-15T16:04:01.353Z,14.79
2023-04-15T16:06:28.491Z,14.07
2023-04-15T16:08:55.434Z,14.79
2023-04-15T16:11:22.343Z,14.48
2023-04-15T16:13:49.325Z,14.83
2023-04-15T16:16:16.250Z,15.31
2023-04-15T16:18:43.157Z,15.48
2023-04-15T16:21:10.148Z,15.75
2023-04-15T16:23:37.247Z,15.26
2023-04-15T16:26:04.199Z,15.35
2023-04-15T16:28:31.148Z,15.01
2023-04-15T16:30:58.061Z,15.54
2023-04-15T16:33:25.004Z,15.71
2023-04-15T16:35:52.123Z,14.66
2023-04-15T16:38:19.017Z,15.74
2023-04-15T16:40:46.215Z,15.62
2023-04-15T16:43:13.086Z,16.60
2023-04-15T16:45:40.003Z,15.48
2023-04-15T16:48:07.264Z,15.84
2023-04-15T16:50:34.173Z,15.75
2023-04-15T16:53:01.680Z,16.22
2023-04-15T16:55:28.589Z,16.33
2023-04-15T16:58:02.201Z,16.64
2023-04-15T17:00:31.518Z,16.63
2023-04-15T17:02:59.354Z,16.89
2023-04-15T17:05:29.634Z,16.60
2023-04-15T17:07:56.537Z,16.90
2023-04-15T17:10:23.538Z,16.12
2023-04-15T17:12:52.425Z,15.82
2023-04-15T17:15:20.427Z,16.06
2023-04-15T17:17:47.353Z,16.28
2023-04-15T17:20:14.919Z,16.86
2023-04-15T17:22:41.834Z,16.63
2023-04-15T17:25:08.890Z,16.03
2023-04-15T17:27:36.122Z,15.82
2023-04-15T17:30:02.990Z,15.97
2023-04-15T17:32:34.404Z,16.73
2023-04-15T17:35:04.459Z,15.67
2023-04-15T17:37:31.390Z,16.21
2023-04-15T17:39:58.261Z,15.88
2023-04-15T17:42:26.421Z,15.32
2023-04-15T17:44:53.349Z,15.87
2023-04-15T17:47:20.516Z,14.95
2023-04-15T17:49:47.941Z,14.46
2023-04-15T17:52:15.009Z,15.50
2023-04-15T17:54:41.955Z,15.51
2023-04-15T17:57:09.745Z,15.83
2023-04-15T17:59:36.710Z,15.64
2023-04-15T18:02:03.729Z,16.25
2023-04-15T18:04:31.053Z,16.07
2023-04-15T18:06:57.987Z,15.16
2023-04-15T18:09:24.877Z,14.48
2023-04-15T18:11:51.790Z,14.65
2023-04-15T18:14:31.152Z,14.84
2023-04-15T18:17:02.113Z,15.52
2023-04-15T18:19:30.275Z,15.42
2023-04-15T18:21:57.183Z,13.99
2023-04-15T18:24:24.120Z,13.95
2023-04-15T18:26:51.034Z,12.86
2023-04-15T18:29:18.710Z,12.73
2023-04-15T18:31:45.613Z,12.94
2023-04-15T18:34:13.099Z,12.51
2023-04-15T18:36:40.079Z,13.22
2023-04-15T18:39:07.131Z,12.99
2023-04-15T18:41:34.213Z,12.44
2023-04-15T18:44:01.257Z,12.43
2023-04-15T18:46:28.726Z,12.74
2023-04-15T18:48:55.617Z,13.01
2023-04-15T18:51:22.539Z,13.81
2023-04-15T18:53:49.502Z,14.16
2023-04-15T18:56:16.407Z,13.74
2023-04-15T18:59:26.449Z,14.39
2023-04-15T19:01:31.942Z,14.20
2023-04-15T19:03:59.128Z,13.95
2023-04-15T19:06:27.411Z,13.95
2023-04-15T19:08:54.756Z,14.06
2023-04-15T19:11:21.953Z,13.89
2023-04-15T19:13:48.891Z,14.52
2023-04-15T19:16:15.836Z,15.27
2023-04-15T19:18:43.237Z,15.45
2023-04-15T19:21:11.332Z,14.91
2023-04-15T19:23:38.445Z,15.29
2023-04-15T19:26:05.528Z,15.77
2023-04-15T19:28:32.482Z,15.20
2023-04-15T19:30:59.380Z,14.83
2023-04-15T19:33:31.256Z,14.78
2023-04-15T19:36:03.623Z,14.74
2023-04-15T19:38:31.507Z,15.01
2023-04-15T19:40:59.963Z,15.84
2023-04-15T19:43:27.377Z,15.54
2023-04-15T19:45:54.936Z,15.02
2023-04-15T19:48:23.148Z,15.61
2023-04-15T19:50:50.152Z,15.00
2023-04-15T19:53:17.257Z,14.50
2023-04-15T19:55:44.127Z,14.74
2023-04-15T19:58:11.423Z,15.57
2023-04-15T20:00:38.404Z,15.11
2023-04-15T20:03:05.887Z,14.64
2023-04-15T20:05:32.873Z,14.44
2023-04-15T20:08:01.185Z,14.84
2023-04-15T20:10:28.085Z,14.54
2023-04-15T20:12:54.941Z,14.21
2023-04-15T20:15:24.026Z,14.25
2023-04-15T20:17:51.370Z,14.56
2023-04-15T20:20:18.660Z,15.17
2023-04-15T20:22:45.710Z,15.32
2023-04-15T20:25:12.614Z,14.94
2023-04-15T20:27:39.693Z,14.54
2023-04-15T20:30:07.564Z,14.44
2023-04-15T20:32:36.241Z,14.91
2023-04-15T20:35:04.567Z,14.18
2023-04-15T20:37:33.523Z,14.34
2023-04-15T20:40:01.451Z,14.48
2023-04-15T20:42:28.799Z,14.98
2023-04-15T20:44:55.801Z,15.64
2023-04-15T20:47:22.814Z,15.44
2023-04-15T20:49:49.796Z,15.02
2023-04-15T20:52:16.780Z,14.52
2023-04-15T20:54:44.769Z,14.30
2023-04-15T20:57:11.642Z,15.09
2023-04-15T20:59:38.616Z,14.83
2023-04-15T21:02:05.796Z,14.19
2023-04-15T21:04:32.729Z,14.81
2023-04-15T21:06:59.581Z,13.85
2023-04-15T21:09:26.573Z,14.14
2023-04-15T21:12:00.997Z,13.71
2023-04-15T21:14:28.866Z,13.68
2023-04-15T21:16:57.442Z,13.98
2023-04-15T21:19:24.329Z,13.70
2023-04-15T21:21:51.181Z,13.43
2023-04-15T21:24:18.081Z,14.14
2023-04-15T21:26:44.970Z,13.14
2023-04-15T21:29:12.151Z,13.39
2023-04-15T21:31:41.012Z,13.70
2023-04-15T21:34:08.101Z,13.83
2023-04-15T21:36:35.079Z,13.70
2023-04-15T21:39:02.080Z,14.21
2023-04-15T21:41:29.026Z,13.80
2023-04-15T21:43:55.885Z,13.70
2023-04-15T21:46:25.535Z,13.50
2023-04-15T21:48:56.212Z,13.44
2023-04-15T21:51:23.140Z,13.71
2023-04-15T21:53:50.104Z,13.41
2023-04-15T21:56:16.994Z,13.53
2023-04-15T21:58:44.151Z,13.53
2023-04-15T22:01:11.124Z,13.78
2023-04-15T22:03:38.170Z,13.74
2023-04-15T22:06:05.420Z,13.72
2023-04-15T22:08:41.358Z,13.56
2023-04-15T22:11:20.735Z,13.36
2023-04-15T22:13:47.685Z,13.68
2023-04-15T22:16:14.634Z,12.51
2023-04-15T22:18:41.543Z,12.98
2023-04-15T22:21:08.683Z,13.38
2023-04-15T22:23:35.622Z,14.32
2023-04-15T22:26:02.499Z,14.61
2023-04-15T22:28:29.401Z,13.98
2023-04-15T22:30:58.235Z,13.39
2023-04-15T22:33:25.246Z,13.82
2023-04-15T22:35:52.088Z,13.25
2023-04-15T22:38:18.959Z,12.67
2023-04-15T22:40:49.049Z,12.28
2023-04-15T22:43:15.946Z,12.53
2023-04-15T22:45:42.835Z,12.83
2023-04-15T22:48:09.667Z,13.20
2023-04-15T22:50:38.094Z,13.00
2023-04-15T22:53:04.940Z,12.71
2023-04-15T22:55:31.821Z,12.83
2023-04-15T22:57:58.692Z,13.21
2023-04-15T23:00:25.591Z,12.80
2023-04-15T23:02:52.569Z,12.42
2023-04-15T23:05:19.665Z,12.36
2023-04-15T23:07:46.678Z,11.80
2023-04-15T23:10:13.521Z,12.54
2023-04-15T23:12:40.365Z,12.71
2023-04-15T23:15:07.919Z,12.81
2023-04-15T23:17:35.037Z,13.20
2023-04-15T23:20:01.957Z,12.47
2023-04-15T23:22:28.836Z,12.08
2023-04-15T23:24:55.718Z,12.57
2023-04-15T23:27:23.031Z,12.89
2023-04-15T23:29:49.944Z,13.27
2023-04-15T23:32:16.864Z,13.30
2023-04-15T23:34:43.722Z,13.66
2023-04-15T23:37:10.668Z,13.09
2023-04-15T23:39:37.509Z,13.34
2023-04-15T23:42:04.497Z,13.44
2023-04-15T23:44:31.393Z,13.49
2023-04-15T23:46:58.316Z,13.06
2023-04-15T23:49:25.226Z,13.00
2023-04-15T23:51:52.101Z,12.98
2023-04-15T23:54:18.967Z,12.94
2023-04-15T23:56:46.349Z,13.02
2023-04-15T23:59:13.237Z,12.89
